Terminal Aerodrome Forecast
Issued by NWS

Home | Current Version | Previous Version | Text Only | Print | Product List | Glossary On
Versions: 1 2 3 4 5 6 7 8 9 10 11 12 13 14 15
904
FTUS44 KJAN 241120
TAFHKS
TAF
KHKS 241120Z 2412/2512 15012G24KT P6SM BKN015 BKN250
     FM241400 15014G25KT P6SM BKN025
     FM241800 16018G26KT P6SM SCT025 BKN050
     FM250300 16016G25KT P6SM VCSH BKN020 BKN250
     FM250800 16013G24KT 6SM SHRA VCTS BKN015CB OVC025=

USA.gov is the U.S. government's official web portal to all federal, state and local government web resources and services.